Meteorological Aerodrome Report (METAR)

METAR

Data at: 1920 UTC 26 Nov 2022

METAR for:NVSC (Sola/Vanua Lava Arpt, TO, VU)
Text:NVSC 261800Z AUTO 00000KT //// // NCD 23/22 Q1008
Temperature: 23.0°C ( 73°F)
Dewpoint: 22.0°C ( 72°F) [RH = 94%]
Pressure (altimeter):29.76 inches Hg (1008.0 mb)
Winds:calm
Ceiling:at least 12,000 feet AGL
Clouds:sky clear below 12,000 feet AGL

METAR

Data at: 1920 UTC 26 Nov 2022

METAR for:NVSG (Longana Arpt, PA, VU)
Text:NVSG 261800Z AUTO 00000KT //// // NCD 23/22 Q1009
Temperature: 23.0°C ( 73°F)
Dewpoint: 22.0°C ( 72°F) [RH = 94%]
Pressure (altimeter):29.79 inches Hg (1009.0 mb)
Winds:calm
Ceiling:at least 12,000 feet AGL
Clouds:sky clear below 12,000 feet AGL

METAR

Data at: 1920 UTC 26 Nov 2022

METAR for:NVSS (Santo/Pekoa Intl, SA, VU)
Text:NVSS 261900Z 12007KT 9999 BKN018 OVC040 24/22 Q1009
Temperature: 24.0°C ( 75°F)
Dewpoint: 22.0°C ( 72°F) [RH = 89%]
Pressure (altimeter):29.79 inches Hg (1009.0 mb)
Winds:from the ESE (120 degrees) at 8 MPH (7 knots; 3.6 m/s)
Visibility:6 or more sm (10+ km)
Ceiling:1800 feet AGL
Clouds: broken clouds at 1800 feet AGL, overcast cloud deck at 4000 feet AGL

METAR

Data at: 1920 UTC 26 Nov 2022

METAR for:NVSL (Malekula Isl/Lamap, MA, VU)
Text:No data found

METAR

Data at: 1920 UTC 26 Nov 2022

METAR for:NVSP (Norsup Arpt, MA, VU)
Text:No data found

METAR

Data at: 1920 UTC 26 Nov 2022

METAR for:NVVV (Efate/Bauerfield Int, SE, VU)
Text:NVVV 261900Z VRB02KT 9999 SCT020 FEW025CB BKN045 23/22 Q1008
Temperature: 23.0°C ( 73°F)
Dewpoint: 22.0°C ( 72°F) [RH = 94%]
Pressure (altimeter):29.76 inches Hg (1008.0 mb)
Winds:variable direction winds at 2 MPH (2 knots; 1.0 m/s)
Visibility:6 or more sm (10+ km)
Ceiling:4500 feet AGL
Clouds: scattered clouds at 2000 feet AGL, few clouds at 2500 feet AGL, broken clouds at 4500 feet AGL

METAR

Data at: 1920 UTC 26 Nov 2022

METAR for:NVVW (Tanna Arpt, TA, VU)
Text:NVVW 261800Z AUTO 12001KT //// // NCD 23/21 Q1008
Temperature: 23.0°C ( 73°F)
Dewpoint: 21.0°C ( 70°F) [RH = 89%]
Pressure (altimeter):29.76 inches Hg (1008.0 mb)
Winds:from the ESE (120 degrees) at 1 MPH (1 knots; 0.5 m/s)
Ceiling:at least 12,000 feet AGL
Clouds:sky clear below 12,000 feet AGL

METAR

Data at: 1920 UTC 26 Nov 2022

METAR for:NVVA (Aneityum/Mystery Isl, TA, VU)
Text:NVVA 261800Z VRB01KT 9999 FEW025 21/21 Q1008
Temperature: 21.0°C ( 70°F)
Dewpoint: 21.0°C ( 70°F) [RH = 100%]
Pressure (altimeter):29.76 inches Hg (1008.0 mb)
Winds:variable direction winds at 1 MPH (1 knots; 0.5 m/s)
Visibility:6 or more sm (10+ km)
Ceiling:at least 12,000 feet AGL
Clouds: few clouds at 2500 feet AGL

METAR

Data at: 1920 UTC 26 Nov 2022

NVVV 261900Z VRB02KT 9999 SCT020 FEW025CB BKN045 23/22 Q1008
NVSC 261800Z AUTO 00000KT //// // NCD 23/22 Q1008
NVSG 261800Z AUTO 00000KT //// // NCD 23/22 Q1009
NVSS 261900Z 12007KT 9999 BKN018 OVC040 24/22 Q1009
No Data available for NVSL
No Data available for NVSP
NVVW 261800Z AUTO 12001KT //// // NCD 23/21 Q1008
NVVA 261800Z VRB01KT 9999 FEW025 21/21 Q1008